Time;durP1;ratioP1;P1;durP2;ratioP2;P2;SDS_P1;SDS_P2;PMS_P1;PMS_P2;Temp;Humidity;BMP_temperature;BMP_pressure;BME280_temperature;BME280_humidity;BME280_pressure;Samples;Min_cycle;Max_cycle;Signal;HPM_P1;HPM_P2
2023/03/12 00:02:00;;;;;;;6.03;5.47;;;3.40;99.90;;;;;;5041888;28;20201;-77
2023/03/12 00:04:26;;;;;;;9.43;5.20;;;3.60;99.90;;;;;;5053812;28;20211;-77
2023/03/12 00:06:52;;;;;;;5.63;5.13;;;3.40;99.90;;;;;;5046918;28;20235;-76
2023/03/12 00:09:18;;;;;;;6.27;5.07;;;3.40;99.90;;;;;;5056385;28;20878;-76
2023/03/12 00:11:43;;;;;;;6.70;5.67;;;3.40;99.90;;;;;;5047167;28;20446;-77
2023/03/12 00:14:09;;;;;;;5.47;4.90;;;3.40;99.90;;;;;;5055159;28;20224;-77
2023/03/12 00:16:34;;;;;;;9.10;5.47;;;3.30;99.90;;;;;;5052450;28;20186;-77
2023/03/12 00:19:00;;;;;;;6.63;4.90;;;3.50;99.90;;;;;;5044507;28;20194;-76
2023/03/12 00:21:26;;;;;;;6.60;5.07;;;3.30;99.90;;;;;;5047814;28;20185;-77
2023/03/12 00:23:52;;;;;;;7.83;5.13;;;3.30;99.90;;;;;;5048600;28;20188;-77
2023/03/12 00:26:20;;;;;;;9.33;4.90;;;3.40;99.90;;;;;;5050443;28;20670;-77
2023/03/12 00:28:47;;;;;;;5.20;4.60;;;3.50;99.90;;;;;;5048912;28;20527;-76
2023/03/12 00:31:26;;;;;;;5.60;4.87;;;3.30;99.90;;;;;;5050119;28;20828;-76
2023/03/12 00:33:52;;;;;;;5.83;4.60;;;3.40;99.90;;;;;;5052889;28;20455;-77
2023/03/12 00:36:20;;;;;;;5.53;4.90;;;3.40;99.90;;;;;;5045891;28;20428;-77
2023/03/12 00:38:46;;;;;;;5.63;5.17;;;3.30;99.90;;;;;;5063390;28;20442;-77
2023/03/12 00:41:11;;;;;;;7.17;4.00;;;3.30;99.90;;;;;;5044173;28;20909;-77
2023/03/12 00:43:37;;;;;;;4.90;4.50;;;3.60;99.90;;;;;;5050015;28;20197;-76
2023/03/12 00:46:03;;;;;;;5.30;4.53;;;3.50;99.90;;;;;;5060765;28;20597;-77
2023/03/12 00:48:29;;;;;;;7.60;3.87;;;3.60;99.90;;;;;;5056084;28;20239;-77
2023/03/12 00:50:54;;;;;;;5.27;3.83;;;3.60;99.90;;;;;;5049800;28;20185;-77
2023/03/12 00:53:20;;;;;;;5.30;3.97;;;3.40;99.90;;;;;;5058142;28;20193;-79
2023/03/12 00:55:45;;;;;;;4.97;3.83;;;3.40;99.90;;;;;;5048488;28;20297;-76
2023/03/12 00:58:11;;;;;;;6.50;3.70;;;3.30;99.90;;;;;;5047949;28;20202;-77
2023/03/12 01:00:37;;;;;;;5.00;3.57;;;3.50;99.90;;;;;;5058292;28;20618;-77
2023/03/12 01:03:03;;;;;;;4.07;3.30;;;3.50;99.90;;;;;;5052109;28;20193;-77
2023/03/12 01:05:28;;;;;;;6.50;4.00;;;3.50;99.90;;;;;;5041447;28;20279;-76
2023/03/12 01:07:54;;;;;;;5.80;3.17;;;3.60;99.90;;;;;;5056402;28;20232;-77
2023/03/12 01:10:20;;;;;;;3.47;3.17;;;3.50;99.90;;;;;;5048485;28;20246;-77
2023/03/12 01:12:46;;;;;;;4.43;3.27;;;3.30;99.90;;;;;;5048665;28;20193;-76
2023/03/12 01:15:15;;;;;;;5.10;3.00;;;3.50;99.90;;;;;;5056582;28;21225;-76
2023/03/12 01:17:41;;;;;;;3.60;3.30;;;3.50;99.90;;;;;;5050322;28;20444;-77
2023/03/12 01:20:08;;;;;;;6.60;3.67;;;3.60;99.90;;;;;;5052561;28;20415;-77
2023/03/12 01:22:35;;;;;;;3.40;3.07;;;3.60;99.90;;;;;;5058962;28;20508;-76
2023/03/12 01:25:01;;;;;;;5.40;2.70;;;3.40;99.90;;;;;;5042129;28;20551;-76
2023/03/12 01:27:26;;;;;;;5.20;3.80;;;3.50;99.90;;;;;;5055197;28;20533;-77
2023/03/12 01:29:52;;;;;;;4.13;3.00;;;3.60;99.90;;;;;;5044395;28;20230;-77
2023/03/12 01:32:18;;;;;;;3.43;2.97;;;3.40;99.90;;;;;;5050008;28;20221;-77
2023/03/12 01:34:44;;;;;;;3.80;2.97;;;3.40;99.90;;;;;;5055924;28;20796;-77
2023/03/12 01:37:09;;;;;;;4.03;2.90;;;3.50;99.90;;;;;;5066093;28;20196;-77
2023/03/12 01:39:35;;;;;;;6.73;3.10;;;3.70;99.90;;;;;;5048722;28;20428;-77
2023/03/12 01:42:01;;;;;;;4.57;2.90;;;3.60;99.90;;;;;;5052639;28;20192;-77
2023/03/12 01:44:28;;;;;;;5.73;3.20;;;3.50;99.90;;;;;;5046521;28;20178;-77
2023/03/12 01:46:53;;;;;;;5.03;3.23;;;3.70;99.90;;;;;;5042995;28;20471;-77
2023/03/12 01:49:25;;;;;;;6.40;3.67;;;3.40;99.90;;;;;;5060841;28;20903;-77
2023/03/12 01:52:19;;;;;;;3.53;2.70;;;3.40;99.90;;;;;;5047810;28;20185;-77
2023/03/12 01:55:04;;;;;;;3.83;3.13;;;3.50;99.90;;;;;;5060255;28;20606;-77
2023/03/12 01:57:45;;;;;;;3.57;2.87;;;3.40;99.90;;;;;;5050426;28;20444;-76
2023/03/12 02:00:15;;;;;;;3.30;2.90;;;3.60;99.90;;;;;;5032209;28;20478;-77
2023/03/12 02:02:43;;;;;;;4.10;3.07;;;3.30;99.90;;;;;;5033695;28;20413;-75
2023/03/12 02:05:26;;;;;;;7.13;2.80;;;3.30;99.90;;;;;;5033705;28;20433;-77
2023/03/12 02:07:53;;;;;;;3.50;3.20;;;3.40;99.90;;;;;;5033204;28;20494;-77
2023/03/12 02:10:20;;;;;;;3.60;2.63;;;3.40;99.90;;;;;;5032325;28;20410;-77
2023/03/12 02:12:46;;;;;;;5.03;2.90;;;3.50;99.90;;;;;;5032943;28;20478;-77
2023/03/12 02:15:12;;;;;;;3.70;3.10;;;3.50;99.90;;;;;;5050333;28;20467;-77
2023/03/12 02:17:39;;;;;;;4.70;2.47;;;3.50;99.90;;;;;;5051896;28;20284;-77
2023/03/12 02:20:11;;;;;;;3.10;2.50;;;3.40;99.90;;;;;;5052364;28;20568;-77
2023/03/12 02:22:40;;;;;;;6.13;2.90;;;3.40;99.90;;;;;;5052797;28;20412;-77
2023/03/12 02:25:17;;;;;;;4.37;3.13;;;3.60;99.90;;;;;;5052388;28;20947;-77
2023/03/12 02:27:43;;;;;;;3.67;2.50;;;3.50;99.90;;;;;;5052075;28;20486;-77
2023/03/12 02:30:14;;;;;;;3.10;2.80;;;3.50;99.90;;;;;;5051658;28;20773;-76
2023/03/12 02:32:42;;;;;;;4.00;3.03;;;3.50;99.90;;;;;;5052126;28;20425;-77
2023/03/12 02:35:09;;;;;;;4.53;2.60;;;3.70;99.90;;;;;;5051490;28;20487;-78
2023/03/12 02:37:34;;;;;;;3.13;2.83;;;3.40;99.90;;;;;;5065949;28;20440;-77
2023/03/12 02:40:16;;;;;;;4.53;3.17;;;3.60;99.90;;;;;;5071684;28;20414;-77
2023/03/12 02:42:41;;;;;;;3.87;2.90;;;3.50;99.90;;;;;;5071792;28;20193;-77
2023/03/12 02:45:07;;;;;;;3.43;2.67;;;3.70;99.90;;;;;;5071267;28;20414;-77
2023/03/12 02:47:33;;;;;;;2.83;2.40;;;3.60;99.90;;;;;;5071479;28;20536;-77
2023/03/12 02:49:59;;;;;;;2.77;2.50;;;3.70;99.90;;;;;;5071462;28;20418;-77
2023/03/12 02:52:24;;;;;;;4.20;2.53;;;3.70;99.90;;;;;;5071450;28;20213;-77
2023/03/12 02:54:50;;;;;;;4.23;2.77;;;3.70;99.90;;;;;;5071139;28;20216;-77
2023/03/12 02:57:16;;;;;;;3.57;2.63;;;3.60;99.90;;;;;;5070078;28;20778;-77
2023/03/12 02:59:42;;;;;;;6.30;2.70;;;3.60;99.90;;;;;;5070735;28;20531;-77
2023/03/12 03:02:08;;;;;;;3.43;2.63;;;3.60;99.90;;;;;;5071061;28;20419;-77
2023/03/12 03:04:34;;;;;;;4.73;2.60;;;3.50;99.90;;;;;;5070917;28;20176;-77
2023/03/12 03:07:00;;;;;;;4.37;2.87;;;3.70;99.90;;;;;;5071059;28;20510;-77
2023/03/12 03:09:26;;;;;;;4.20;2.67;;;3.80;99.90;;;;;;5070985;28;20495;-77
2023/03/12 03:11:51;;;;;;;3.63;2.83;;;3.80;99.90;;;;;;5071270;28;20407;-77
2023/03/12 03:14:17;;;;;;;3.00;2.63;;;3.70;99.90;;;;;;5071215;28;20296;-77
2023/03/12 03:16:43;;;;;;;6.60;3.53;;;3.70;99.90;;;;;;5071878;28;20161;-77
2023/03/12 03:19:10;;;;;;;4.10;2.90;;;3.70;99.90;;;;;;5071653;28;20426;-77
2023/03/12 03:21:36;;;;;;;4.17;2.70;;;3.70;99.90;;;;;;5071002;28;20189;-77
2023/03/12 03:24:02;;;;;;;4.00;3.20;;;3.70;99.90;;;;;;5068926;28;20498;-77
2023/03/12 03:26:28;;;;;;;4.67;2.50;;;3.60;99.90;;;;;;5049706;28;20408;-77
2023/03/12 03:28:54;;;;;;;5.40;2.93;;;3.70;99.90;;;;;;5050150;28;20527;-77
2023/03/12 03:31:20;;;;;;;5.93;2.70;;;3.70;99.90;;;;;;5050041;28;20185;-77
2023/03/12 03:33:47;;;;;;;3.63;2.47;;;3.80;99.90;;;;;;5050957;28;20451;-77
2023/03/12 03:36:13;;;;;;;3.67;3.37;;;3.50;99.90;;;;;;5051189;28;20423;-78
2023/03/12 03:38:40;;;;;;;3.67;2.60;;;3.50;99.90;;;;;;5049160;28;21083;-77
2023/03/12 03:41:06;;;;;;;2.90;2.10;;;3.70;99.90;;;;;;5051285;28;20416;-77
2023/03/12 03:43:32;;;;;;;3.37;2.93;;;3.70;99.90;;;;;;5050764;28;20750;-77
2023/03/12 03:46:00;;;;;;;4.67;3.07;;;3.60;99.90;;;;;;5051571;28;20177;-77
2023/03/12 03:48:26;;;;;;;3.40;2.70;;;3.70;99.90;;;;;;5050305;28;20428;-77
2023/03/12 03:50:52;;;;;;;6.03;3.33;;;3.50;99.90;;;;;;5048965;28;20463;-77
2023/03/12 03:53:18;;;;;;;3.37;2.40;;;3.70;99.90;;;;;;5052932;28;20412;-77
2023/03/12 03:55:46;;;;;;;3.33;2.70;;;3.70;99.90;;;;;;5054168;28;20439;-77
2023/03/12 03:58:12;;;;;;;4.70;2.77;;;3.80;99.90;;;;;;5053629;28;20452;-76
2023/03/12 04:00:38;;;;;;;5.03;3.00;;;3.60;99.90;;;;;;5050879;28;20946;-75
2023/03/12 04:03:04;;;;;;;3.03;2.53;;;3.60;99.90;;;;;;5052444;28;20492;-77
2023/03/12 04:05:30;;;;;;;4.40;3.47;;;3.80;99.90;;;;;;5052696;28;20201;-77
2023/03/12 04:08:01;;;;;;;3.03;2.73;;;3.70;99.90;;;;;;5051115;28;20452;-77
2023/03/12 04:10:28;;;;;;;3.73;2.53;;;3.70;99.90;;;;;;5049275;28;20471;-77
2023/03/12 04:12:54;;;;;;;3.37;2.93;;;3.70;99.90;;;;;;5052563;28;20464;-77
2023/03/12 04:15:20;;;;;;;3.70;2.53;;;3.70;99.90;;;;;;5052884;28;20463;-77
2023/03/12 04:17:46;;;;;;;3.93;2.63;;;4.00;99.90;;;;;;5052457;28;20431;-77
2023/03/12 04:20:12;;;;;;;2.47;2.27;;;3.80;99.90;;;;;;5053480;28;20178;-77
2023/03/12 04:22:38;;;;;;;2.73;2.53;;;4.00;99.90;;;;;;5051808;28;20451;-77
2023/03/12 04:25:06;;;;;;;4.40;2.60;;;3.90;99.90;;;;;;5049129;28;20517;-77
2023/03/12 04:27:32;;;;;;;3.20;2.80;;;3.90;99.90;;;;;;5049328;28;20193;-77
2023/03/12 04:29:58;;;;;;;3.67;2.37;;;3.90;99.90;;;;;;5049623;28;20411;-77
2023/03/12 04:32:23;;;;;;;3.63;2.90;;;3.90;99.90;;;;;;5049261;28;20412;-77
2023/03/12 04:34:49;;;;;;;3.50;2.23;;;3.90;99.90;;;;;;5047882;28;20217;-77
2023/03/12 04:37:15;;;;;;;3.33;2.20;;;3.90;99.90;;;;;;5059400;28;20183;-77
2023/03/12 04:39:41;;;;;;;3.47;2.47;;;3.90;99.90;;;;;;5068401;28;20168;-77
2023/03/12 04:42:07;;;;;;;7.07;2.30;;;4.00;99.90;;;;;;5069410;28;20173;-77
2023/03/12 04:44:34;;;;;;;3.67;2.30;;;3.90;99.90;;;;;;5049729;28;20459;-78
2023/03/12 04:47:00;;;;;;;2.60;2.40;;;4.00;99.90;;;;;;5053743;28;21137;-77
2023/03/12 04:49:26;;;;;;;2.20;1.93;;;4.00;99.90;;;;;;5053307;28;20452;-77
2023/03/12 04:51:51;;;;;;;5.37;2.53;;;4.00;99.90;;;;;;5049811;28;20455;-77
2023/03/12 04:54:19;;;;;;;2.90;2.33;;;4.00;99.90;;;;;;5049010;28;20452;-76
2023/03/12 04:56:45;;;;;;;4.30;2.70;;;3.90;99.90;;;;;;5050304;28;20220;-77
2023/03/12 04:59:11;;;;;;;7.33;2.50;;;3.90;99.90;;;;;;5050091;28;20439;-77
2023/03/12 05:01:37;;;;;;;3.40;2.67;;;4.20;99.90;;;;;;5050828;28;20460;-77
2023/03/12 05:04:03;;;;;;;4.40;2.40;;;4.00;99.90;;;;;;5050432;28;20188;-77
2023/03/12 05:06:29;;;;;;;3.30;2.27;;;4.10;99.90;;;;;;5050384;28;20201;-77
2023/03/12 05:08:55;;;;;;;3.40;2.23;;;4.00;99.90;;;;;;5050246;28;20527;-77
2023/03/12 05:11:21;;;;;;;3.00;2.03;;;4.00;99.90;;;;;;5045337;28;20196;-77
2023/03/12 05:13:47;;;;;;;2.60;2.20;;;4.10;99.90;;;;;;5049076;28;20213;-77
2023/03/12 05:16:14;;;;;;;5.00;2.33;;;4.20;99.90;;;;;;5051051;28;20411;-77
2023/03/12 05:18:41;;;;;;;5.93;2.50;;;4.20;99.90;;;;;;5050978;28;20527;-77
2023/03/12 05:21:11;;;;;;;2.23;2.00;;;4.20;99.90;;;;;;5052758;28;20408;-77
2023/03/12 05:23:38;;;;;;;2.10;1.93;;;4.30;99.90;;;;;;5054834;28;20416;-76
2023/03/12 05:26:05;;;;;;;4.87;2.60;;;4.00;99.90;;;;;;5055138;28;20419;-77
2023/03/12 05:28:32;;;;;;;4.60;2.60;;;4.20;99.90;;;;;;5035161;28;20454;-76
2023/03/12 05:30:59;;;;;;;4.90;2.50;;;4.20;99.90;;;;;;5052902;28;20514;-76
2023/03/12 05:33:27;;;;;;;2.27;2.07;;;4.20;99.90;;;;;;5052338;28;20412;-77
2023/03/12 05:35:53;;;;;;;2.33;1.90;;;3.90;99.90;;;;;;5053373;28;20746;-77
2023/03/12 05:38:19;;;;;;;3.23;2.37;;;4.10;99.90;;;;;;5071048;28;20426;-76
2023/03/12 05:40:52;;;;;;;5.33;2.60;;;4.20;99.90;;;;;;5072907;28;20936;-76
2023/03/12 05:43:18;;;;;;;3.17;2.20;;;4.10;99.90;;;;;;5072327;28;20227;-76
2023/03/12 05:45:43;;;;;;;2.90;2.30;;;4.00;99.90;;;;;;5071755;28;20415;-76
2023/03/12 05:48:09;;;;;;;4.70;2.23;;;4.30;99.90;;;;;;5072368;28;20199;-76
2023/03/12 05:50:35;;;;;;;6.10;2.47;;;4.00;99.90;;;;;;5072801;28;20218;-76
2023/03/12 05:53:00;;;;;;;2.97;2.40;;;4.00;99.90;;;;;;5072853;28;20181;-76
2023/03/12 05:55:26;;;;;;;6.60;2.00;;;4.20;99.90;;;;;;5072420;28;20213;-76
2023/03/12 05:57:52;;;;;;;4.23;2.10;;;4.10;99.90;;;;;;5072392;28;20220;-76
2023/03/12 06:00:19;;;;;;;3.50;2.20;;;4.10;99.90;;;;;;5072531;28;20203;-75
2023/03/12 06:02:45;;;;;;;4.57;2.57;;;4.20;99.90;;;;;;5073239;28;20422;-76
2023/03/12 06:05:11;;;;;;;3.10;2.03;;;4.20;99.90;;;;;;5073984;28;20423;-76
2023/03/12 06:07:37;;;;;;;3.10;2.23;;;4.40;99.90;;;;;;5080085;28;20185;-75
2023/03/12 06:10:03;;;;;;;2.50;2.23;;;4.20;99.90;;;;;;5096842;28;20503;-75
2023/03/12 06:12:28;;;;;;;2.60;2.40;;;4.30;99.90;;;;;;5094944;28;20161;-77
2023/03/12 06:14:54;;;;;;;4.17;2.93;;;4.30;99.90;;;;;;5082348;28;20209;-77
2023/03/12 06:17:19;;;;;;;2.90;2.27;;;4.20;99.90;;;;;;5078967;28;20193;-77
2023/03/12 06:19:49;;;;;;;2.70;2.20;;;4.10;99.90;;;;;;5073550;28;20654;-77
2023/03/12 06:22:14;;;;;;;4.20;2.63;;;4.20;99.90;;;;;;5072528;28;20289;-75
2023/03/12 06:24:41;;;;;;;3.10;2.30;;;4.00;99.90;;;;;;5071854;28;20407;-77
2023/03/12 06:27:07;;;;;;;2.87;2.40;;;4.10;99.90;;;;;;5071209;28;20631;-77
2023/03/12 06:29:32;;;;;;;7.13;3.10;;;4.00;99.90;;;;;;5071140;28;20468;-77
2023/03/12 06:31:58;;;;;;;5.43;2.80;;;4.10;99.90;;;;;;5072153;28;20569;-76
2023/03/12 06:34:24;;;;;;;3.20;2.40;;;4.10;99.90;;;;;;5073309;28;20335;-77
2023/03/12 06:36:49;;;;;;;6.00;2.47;;;4.00;99.90;;;;;;5065325;28;20260;-76
2023/03/12 06:39:15;;;;;;;3.70;2.67;;;4.10;99.90;;;;;;5051940;28;20194;-76
2023/03/12 06:41:41;;;;;;;2.70;2.47;;;4.00;99.90;;;;;;5051898;28;20560;-76
2023/03/12 06:44:06;;;;;;;2.60;2.17;;;4.00;99.90;;;;;;5051702;28;20209;-76
2023/03/12 06:46:32;;;;;;;5.47;2.63;;;4.00;99.90;;;;;;5051254;28;20650;-76
2023/03/12 06:48:58;;;;;;;6.60;3.10;;;3.80;99.90;;;;;;5050880;28;20200;-76
2023/03/12 06:51:23;;;;;;;2.70;2.40;;;3.80;99.90;;;;;;5051613;28;20491;-77
2023/03/12 06:53:49;;;;;;;3.30;2.70;;;3.90;99.90;;;;;;5051377;28;20256;-75
2023/03/12 06:56:15;;;;;;;4.13;2.80;;;3.80;99.90;;;;;;5050565;28;20253;-76
2023/03/12 06:58:41;;;;;;;4.50;2.93;;;4.00;99.90;;;;;;5049961;28;20285;-76
2023/03/12 07:01:07;;;;;;;4.03;2.47;;;4.00;99.90;;;;;;5050801;28;20516;-77
2023/03/12 07:03:33;;;;;;;3.90;2.73;;;4.00;99.90;;;;;;5050640;28;20170;-77
2023/03/12 07:05:59;;;;;;;3.83;2.80;;;4.00;99.90;;;;;;5051051;28;20443;-76
2023/03/12 07:08:29;;;;;;;3.70;3.03;;;3.80;99.90;;;;;;5050772;28;20673;-76
2023/03/12 07:10:56;;;;;;;5.20;3.10;;;4.00;99.90;;;;;;5050457;28;20430;-76
2023/03/12 07:13:22;;;;;;;6.10;3.10;;;4.10;99.90;;;;;;5048358;28;20429;-76
2023/03/12 07:15:48;;;;;;;4.07;2.90;;;4.00;99.90;;;;;;5048632;28;20421;-76
2023/03/12 07:18:13;;;;;;;5.30;3.00;;;3.90;99.90;;;;;;5049941;28;20952;-76
2023/03/12 07:20:41;;;;;;;3.60;3.30;;;4.00;99.90;;;;;;5050648;28;20928;-76
2023/03/12 07:23:07;;;;;;;5.07;2.97;;;4.00;99.90;;;;;;5050895;28;20261;-76
2023/03/12 07:25:38;;;;;;;6.90;3.87;;;4.10;99.90;;;;;;5050740;28;20510;-74
2023/03/12 07:28:04;;;;;;;5.23;3.33;;;4.10;99.90;;;;;;5050176;28;20194;-77
2023/03/12 07:30:33;;;;;;;4.57;3.40;;;4.20;99.90;;;;;;5050874;28;20412;-76
2023/03/12 07:33:03;;;;;;;3.93;3.40;;;4.10;99.90;;;;;;5049121;28;20645;-76
2023/03/12 07:35:29;;;;;;;4.60;3.50;;;4.10;99.90;;;;;;5050531;28;20550;-77
2023/03/12 07:37:55;;;;;;;5.67;3.80;;;4.30;99.90;;;;;;5050573;28;20440;-76
2023/03/12 07:40:21;;;;;;;3.97;3.57;;;4.20;99.90;;;;;;5049908;28;20435;-77
2023/03/12 07:42:48;;;;;;;4.87;3.70;;;4.40;99.90;;;;;;5050600;28;20185;-76
2023/03/12 07:45:14;;;;;;;5.37;4.07;;;4.10;99.90;;;;;;5050147;28;20413;-76
2023/03/12 07:47:40;;;;;;;6.43;3.53;;;4.40;99.90;;;;;;5050044;28;20440;-76
2023/03/12 07:50:06;;;;;;;3.63;3.33;;;4.50;99.90;;;;;;5048798;28;20189;-76
2023/03/12 07:52:31;;;;;;;5.17;2.97;;;4.40;99.90;;;;;;5032795;28;20189;-77
2023/03/12 07:54:57;;;;;;;4.50;3.50;;;4.30;99.90;;;;;;5048993;28;20462;-76
2023/03/12 07:57:23;;;;;;;4.00;3.70;;;4.30;99.90;;;;;;5048416;28;20193;-76
2023/03/12 07:59:49;;;;;;;4.77;4.23;;;4.40;99.90;;;;;;5049679;28;20182;-76
2023/03/12 08:02:15;;;;;;;5.20;3.50;;;4.30;99.90;;;;;;5047763;28;20424;-75
2023/03/12 08:04:40;;;;;;;6.77;4.07;;;4.40;99.90;;;;;;5049227;28;20532;-77
2023/03/12 08:07:06;;;;;;;4.50;3.50;;;4.40;99.90;;;;;;5049364;28;20224;-77
2023/03/12 08:09:32;;;;;;;4.90;3.37;;;4.40;99.90;;;;;;5049288;28;20173;-76
2023/03/12 08:11:58;;;;;;;4.37;3.50;;;4.40;99.90;;;;;;5031886;28;20522;-76
2023/03/12 08:14:24;;;;;;;6.30;3.73;;;4.70;99.90;;;;;;5049656;28;20213;-77
2023/03/12 08:16:49;;;;;;;4.07;3.77;;;4.70;99.90;;;;;;5048964;28;20827;-77
2023/03/12 08:19:15;;;;;;;6.63;4.27;;;4.70;99.90;;;;;;5049168;28;20214;-76
2023/03/12 08:21:41;;;;;;;5.47;3.83;;;4.50;99.90;;;;;;5049571;28;20182;-76
2023/03/12 08:24:07;;;;;;;5.00;3.57;;;4.70;99.90;;;;;;5049502;28;20416;-76
2023/03/12 08:26:33;;;;;;;5.10;3.40;;;4.80;99.90;;;;;;5049523;28;20181;-76
2023/03/12 08:29:01;;;;;;;3.90;3.50;;;4.70;99.90;;;;;;5048973;28;20549;-76
2023/03/12 08:31:27;;;;;;;4.60;3.70;;;4.70;99.90;;;;;;5048289;28;20197;-76
2023/03/12 08:33:53;;;;;;;4.20;3.80;;;4.80;99.90;;;;;;5049465;28;20451;-76
2023/03/12 08:36:19;;;;;;;6.27;4.23;;;4.80;99.90;;;;;;5049881;28;20463;-76
2023/03/12 08:38:44;;;;;;;4.53;3.90;;;5.00;99.90;;;;;;5049634;28;20227;-76
2023/03/12 08:41:11;;;;;;;4.10;3.70;;;4.80;99.90;;;;;;5043827;28;20221;-75
2023/03/12 08:43:36;;;;;;;7.53;4.17;;;4.80;99.90;;;;;;5047240;28;20234;-76
2023/03/12 08:46:02;;;;;;;8.30;3.80;;;5.10;99.90;;;;;;5035841;28;20933;-76
2023/03/12 08:48:30;;;;;;;4.83;4.13;;;5.00;99.90;;;;;;5045582;28;20216;-76
2023/03/12 08:50:57;;;;;;;5.40;4.03;;;5.00;99.90;;;;;;5049007;28;20492;-76
2023/03/12 08:53:26;;;;;;;7.50;4.50;;;4.90;99.90;;;;;;5046846;28;20551;-76
2023/03/12 08:55:53;;;;;;;4.50;3.90;;;5.10;99.90;;;;;;5030301;28;20776;-76
2023/03/12 08:58:19;;;;;;;4.27;3.50;;;5.20;99.90;;;;;;5032936;28;20437;-76
2023/03/12 09:00:45;;;;;;;5.27;4.07;;;5.30;99.90;;;;;;5033267;28;20421;-77
2023/03/12 09:03:13;;;;;;;6.57;4.70;;;5.30;99.90;;;;;;5033070;28;20499;-77
2023/03/12 09:05:40;;;;;;;5.00;4.43;;;5.20;99.90;;;;;;5033453;28;20198;-77
2023/03/12 09:08:06;;;;;;;5.13;4.03;;;5.30;99.90;;;;;;5038658;28;20969;-76
2023/03/12 09:10:32;;;;;;;7.53;4.70;;;5.20;99.90;;;;;;5052785;28;20480;-77
2023/03/12 09:12:58;;;;;;;4.63;4.23;;;5.30;99.90;;;;;;5042175;28;21097;-77
2023/03/12 09:15:24;;;;;;;6.93;4.27;;;5.60;99.90;;;;;;5051207;28;20491;-77
2023/03/12 09:17:49;;;;;;;5.03;3.90;;;5.40;99.90;;;;;;5054462;28;20205;-77
2023/03/12 09:20:15;;;;;;;5.07;3.97;;;5.50;99.90;;;;;;5059650;28;20282;-77
2023/03/12 09:22:42;;;;;;;5.80;4.23;;;5.50;99.90;;;;;;5050938;28;20208;-76
2023/03/12 09:25:10;;;;;;;5.27;4.60;;;5.60;99.90;;;;;;5051267;28;20448;-76
2023/03/12 09:27:44;;;;;;;3.80;3.50;;;5.60;99.90;;;;;;5049896;28;20443;-76
2023/03/12 09:30:15;;;;;;;5.43;4.17;;;5.40;99.90;;;;;;5050957;28;20438;-77
2023/03/12 09:32:43;;;;;;;3.80;3.50;;;5.70;99.90;;;;;;5060926;28;20931;-77
2023/03/12 09:35:09;;;;;;;3.53;3.23;;;5.60;99.90;;;;;;5048465;28;20554;-76
2023/03/12 09:37:34;;;;;;;4.40;3.60;;;5.50;99.90;;;;;;5053603;28;21057;-77
2023/03/12 09:40:00;;;;;;;4.80;3.60;;;5.70;99.90;;;;;;5052127;28;20212;-76
2023/03/12 09:42:45;;;;;;;2.93;2.70;;;5.60;99.90;;;;;;5063306;28;20209;-76
2023/03/12 09:45:36;;;;;;;3.10;2.80;;;5.60;99.90;;;;;;5046880;28;20436;-76
2023/03/12 09:48:06;;;;;;;4.80;3.73;;;5.60;99.90;;;;;;5053324;28;20482;-76
2023/03/12 09:50:39;;;;;;;4.90;3.03;;;5.60;99.90;;;;;;5061153;28;20824;-76
2023/03/12 09:53:22;;;;;;;2.80;2.60;;;5.80;99.90;;;;;;5061084;28;20470;-76
2023/03/12 09:55:51;;;;;;;7.50;3.20;;;5.80;99.90;;;;;;5052665;28;20482;-77
2023/03/12 09:58:34;;;;;;;3.53;3.23;;;5.70;99.90;;;;;;5061008;28;20985;-77
2023/03/12 10:01:23;;;;;;;7.10;3.70;;;5.70;99.90;;;;;;5056604;28;20524;-77
2023/03/12 10:04:15;;;;;;;3.53;2.80;;;5.80;99.90;;;;;;5066388;28;20432;-76
2023/03/12 10:07:19;;;;;;;3.80;3.17;;;5.70;99.90;;;;;;5062847;28;20577;-76
2023/03/12 10:10:03;;;;;;;3.73;3.33;;;5.60;99.90;;;;;;5044185;28;20440;-77
2023/03/12 10:12:48;;;;;;;3.20;2.67;;;5.90;99.90;;;;;;5063162;28;20455;-76
2023/03/12 10:15:46;;;;;;;3.30;3.00;;;5.70;99.90;;;;;;5053781;28;20466;-75
2023/03/12 10:18:41;;;;;;;3.90;3.10;;;5.90;99.90;;;;;;5060408;28;20435;-76
2023/03/12 10:21:27;;;;;;;3.90;3.00;;;5.80;99.90;;;;;;5057394;28;20443;-77
2023/03/12 10:24:27;;;;;;;3.00;2.70;;;5.80;99.90;;;;;;5052226;28;20436;-77
2023/03/12 10:26:56;;;;;;;3.13;2.87;;;5.90;99.90;;;;;;5047666;28;20444;-77
2023/03/12 10:29:25;;;;;;;3.50;2.40;;;5.90;99.90;;;;;;5060771;28;20472;-77
2023/03/12 10:32:01;;;;;;;3.23;2.93;;;6.00;99.90;;;;;;5039789;28;20542;-77
2023/03/12 10:34:47;;;;;;;4.03;3.43;;;6.00;99.90;;;;;;5041781;28;20475;-78
2023/03/12 10:37:30;;;;;;;3.67;3.37;;;6.00;99.90;;;;;;5042881;28;20455;-76
2023/03/12 10:39:58;;;;;;;2.87;2.67;;;5.70;99.90;;;;;;5041828;28;20455;-77
2023/03/12 10:42:27;;;;;;;2.50;2.30;;;5.90;99.90;;;;;;5041888;28;21018;-77
2023/03/12 10:45:04;;;;;;;3.00;2.50;;;6.00;99.90;;;;;;5046083;28;20501;-76
2023/03/12 10:47:47;;;;;;;2.67;2.47;;;6.30;99.90;;;;;;5044732;28;20453;-77
2023/03/12 10:50:22;;;;;;;4.20;3.30;;;6.10;99.90;;;;;;5043319;28;20440;-77
2023/03/12 10:52:50;;;;;;;3.30;3.00;;;6.20;99.90;;;;;;5054918;28;20955;-75
2023/03/12 10:55:22;;;;;;;3.37;3.07;;;6.10;99.90;;;;;;5047093;28;20463;-77
2023/03/12 10:57:48;;;;;;;2.93;2.63;;;6.20;99.90;;;;;;5050924;28;21237;-77
2023/03/12 11:00:23;;;;;;;2.80;2.50;;;6.20;99.90;;;;;;5045020;28;20428;-77
2023/03/12 11:02:57;;;;;;;2.67;2.47;;;6.30;99.90;;;;;;5047089;28;20947;-77
2023/03/12 11:05:44;;;;;;;3.30;3.00;;;6.30;99.90;;;;;;5045642;28;20464;-76
2023/03/12 11:08:25;;;;;;;3.03;2.80;;;6.50;99.90;;;;;;5043605;28;20541;-77
2023/03/12 11:10:52;;;;;;;3.23;3.00;;;6.30;99.90;;;;;;5044501;28;20444;-76
2023/03/12 11:13:33;;;;;;;3.30;3.00;;;6.30;99.90;;;;;;5053050;28;20451;-76
2023/03/12 11:16:19;;;;;;;3.57;3.27;;;6.40;99.90;;;;;;5057912;28;20454;-77
2023/03/12 11:18:55;;;;;;;3.40;3.10;;;6.40;99.90;;;;;;5051566;28;20484;-77
2023/03/12 11:21:20;;;;;;;3.00;2.80;;;6.10;99.90;;;;;;5044865;28;20449;-77
2023/03/12 11:24:11;;;;;;;3.03;2.83;;;6.40;99.90;;;;;;5051263;28;20505;-76
2023/03/12 11:26:46;;;;;;;3.63;3.33;;;6.50;99.90;;;;;;5043600;28;20749;-78
2023/03/12 11:29:26;;;;;;;3.87;3.57;;;6.50;99.90;;;;;;5049520;28;20432;-76
2023/03/12 11:32:16;;;;;;;3.10;2.90;;;6.50;99.90;;;;;;5048768;28;20446;-78
2023/03/12 11:34:46;;;;;;;3.60;3.30;;;6.50;99.90;;;;;;5053973;28;20465;-77
2023/03/12 11:37:26;;;;;;;4.40;4.00;;;6.60;99.90;;;;;;5046465;28;20464;-77
2023/03/12 11:40:16;;;;;;;3.57;3.27;;;6.60;99.90;;;;;;5033868;28;20834;-76
2023/03/12 11:43:04;;;;;;;4.43;3.93;;;6.60;99.90;;;;;;5052586;28;20454;-77
2023/03/12 11:45:35;;;;;;;5.67;3.93;;;6.70;99.90;;;;;;5044076;28;20467;-77
2023/03/12 11:48:07;;;;;;;5.33;4.67;;;6.70;99.90;;;;;;5049359;28;20432;-77
2023/03/12 11:51:00;;;;;;;4.13;3.73;;;6.70;99.90;;;;;;5051411;28;20449;-77
2023/03/12 11:53:35;;;;;;;5.77;5.17;;;6.80;99.90;;;;;;5044149;28;20431;-77
2023/03/12 11:56:25;;;;;;;5.83;5.27;;;6.80;99.90;;;;;;5053379;28;20443;-77
2023/03/12 11:59:09;;;;;;;5.90;5.20;;;6.80;99.90;;;;;;5047354;28;20792;-77
2023/03/12 12:01:54;;;;;;;6.20;4.73;;;6.90;99.90;;;;;;5051226;28;21099;-76
2023/03/12 12:04:45;;;;;;;5.20;4.70;;;6.90;99.90;;;;;;5042894;28;21030;-78
2023/03/12 12:07:32;;;;;;;5.27;4.77;;;6.90;99.90;;;;;;5048618;28;20460;-77
2023/03/12 12:10:15;;;;;;;5.37;4.87;;;7.00;99.90;;;;;;5044781;28;20433;-76
2023/03/12 12:12:44;;;;;;;6.03;5.27;;;7.00;99.90;;;;;;5047940;28;20447;-76
2023/03/12 12:15:37;;;;;;;6.13;5.53;;;7.10;99.90;;;;;;5043255;28;20464;-77
2023/03/12 12:18:19;;;;;;;6.37;5.77;;;7.10;99.90;;;;;;5045752;28;20425;-77
2023/03/12 12:21:01;;;;;;;5.00;4.50;;;7.20;99.90;;;;;;5051931;28;20539;-77
2023/03/12 12:23:49;;;;;;;6.23;5.57;;;7.30;99.90;;;;;;5042749;28;21165;-77
2023/03/12 12:26:28;;;;;;;6.07;5.47;;;7.30;99.90;;;;;;5044814;28;20460;-77
2023/03/12 12:29:26;;;;;;;6.73;6.00;;;7.30;99.90;;;;;;5024622;28;20459;-77
2023/03/12 12:31:57;;;;;;;7.07;6.23;;;7.40;99.90;;;;;;5043767;28;20451;-77
2023/03/12 12:34:31;;;;;;;9.17;6.90;;;7.50;99.90;;;;;;5046453;28;20466;-77
2023/03/12 12:37:25;;;;;;;9.60;7.47;;;7.50;99.90;;;;;;5052772;28;20812;-77
2023/03/12 12:40:07;;;;;;;10.30;8.07;;;7.50;99.90;;;;;;5038735;28;20435;-77
2023/03/12 12:42:43;;;;;;;10.47;8.47;;;7.60;99.90;;;;;;5058860;28;21233;-77
2023/03/12 12:45:12;;;;;;;13.57;9.37;;;7.60;99.90;;;;;;5054275;28;20471;-77
2023/03/12 12:47:48;;;;;;;12.80;8.70;;;7.60;99.90;;;;;;5049045;28;20491;-77
2023/03/12 12:50:19;;;;;;;12.87;9.20;;;7.70;99.90;;;;;;5057355;28;20447;-77
2023/03/12 12:52:56;;;;;;;13.10;10.17;;;7.70;99.90;;;;;;5057950;28;20835;-77
2023/03/12 12:55:32;;;;;;;13.67;9.80;;;7.70;99.90;;;;;;5056975;28;20652;-77
2023/03/12 12:58:11;;;;;;;14.13;10.17;;;7.80;99.90;;;;;;5045569;28;20435;-76
2023/03/12 13:00:58;;;;;;;11.87;9.60;;;7.80;99.90;;;;;;5042455;28;20452;-77
2023/03/12 13:03:25;;;;;;;12.63;8.57;;;7.80;99.90;;;;;;5058776;28;20444;-77
2023/03/12 13:05:55;;;;;;;12.43;9.33;;;7.90;99.90;;;;;;5047598;28;20460;-77
2023/03/12 13:08:41;;;;;;;12.53;8.70;;;7.80;99.90;;;;;;5042702;28;20457;-77
2023/03/12 13:11:15;;;;;;;9.80;8.80;;;7.90;99.90;;;;;;5032131;28;20969;-76
2023/03/12 13:14:01;;;;;;;12.03;8.90;;;7.90;99.90;;;;;;5058045;28;20439;-77